Terminal Aerodrome Forecast
Issued by NWS

Home | Current Version | Previous Version | Text Only | Print | Product List | Glossary On
Versions: 1 2 3 4 5 6 7 8 9 10 11 12 13 14
000
FTUS45 KTFX 181000 CCA
TAFBZN
TAF COR
KBZN 181019Z 1810/1906 VRB06KT P6SM VCSH SCT090 BKN150
      TEMPO 1810/1813 VRB15G35KT 6SM -TSRA BKN050CB
     FM181300 VRB06KT P6SM VCTS SCT090CB BKN150
     FM182100 24011KT P6SM SCT060 BKN100 PROB30 1821/1902 -TSRA
      BKN060CB
     FM190200 24007KT P6SM BKN120=

USA.gov is the U.S. government's official web portal to all federal, state and local government web resources and services.